Time;durP1;ratioP1;P1;durP2;ratioP2;P2;SDS_P1;SDS_P2;PMS_P1;PMS_P2;Temp;Humidity;BMP_temperature;BMP_pressure;BME280_temperature;BME280_humidity;BME280_pressure;Samples;Min_cycle;Max_cycle;Signal;HPM_P1;HPM_P2
2021/05/28 00:01:05;;;;;;;7.00;6.50;;;;;;;17.26;81.32;99451.18;1714273;81;21503;-51
2021/05/28 00:03:31;;;;;;;7.05;6.53;;;;;;;17.23;81.33;99455.00;1774946;79;20909;-55
2021/05/28 00:05:58;;;;;;;7.22;6.62;;;;;;;17.23;81.37;99450.92;1717670;81;21323;-54
2021/05/28 00:08:24;;;;;;;9.20;8.43;;;;;;;17.22;81.25;99451.91;1771552;79;20964;-53
2021/05/28 00:10:51;;;;;;;9.50;8.85;;;;;;;17.22;81.29;99444.23;1728343;81;21583;-52
2021/05/28 00:13:19;;;;;;;7.85;7.35;;;;;;;17.20;81.27;99451.16;1748702;80;21600;-55
2021/05/28 00:15:47;;;;;;;7.87;6.47;;;;;;;17.18;81.33;99455.84;1748653;80;21131;-53
2021/05/28 00:18:14;;;;;;;6.65;6.15;;;;;;;17.18;81.29;99451.77;1747631;80;21125;-53
2021/05/28 00:20:40;;;;;;;7.87;7.37;;;;;;;17.15;81.08;99450.67;1769504;79;21376;-54
2021/05/28 00:23:06;;;;;;;8.13;7.62;;;;;;;17.14;81.08;99447.58;1753530;80;21619;-52
2021/05/28 00:25:33;;;;;;;8.00;7.40;;;;;;;17.13;81.12;99443.61;1752344;80;21626;-52
2021/05/28 00:28:00;;;;;;;8.65;8.05;;;;;;;17.13;81.21;99447.69;1751604;80;21892;-52
2021/05/28 00:30:28;;;;;;;8.85;8.28;;;;;;;17.13;81.29;99449.92;1752527;80;21094;-53
2021/05/28 00:32:54;;;;;;;9.08;8.48;;;;;;;17.13;81.34;99451.77;1771777;79;21824;-54
2021/05/28 00:35:20;;;;;;;8.10;7.70;;;;;;;17.11;81.40;99447.81;1748557;80;22374;-54
2021/05/28 00:37:47;;;;;;;8.03;7.20;;;;;;;17.13;81.34;99443.61;1769903;79;21153;-53
2021/05/28 00:40:15;;;;;;;7.53;7.10;;;;;;;17.13;81.27;99436.32;1750421;80;21126;-53
2021/05/28 00:42:42;;;;;;;7.55;6.95;;;;;;;17.12;81.26;99435.08;1752440;80;21086;-54
2021/05/28 00:45:09;;;;;;;9.35;7.75;;;;;;;17.10;81.18;99432.48;1770196;79;21183;-51
2021/05/28 00:47:36;;;;;;;9.30;8.58;;;;;;;17.09;81.19;99428.55;1746424;80;21597;-50
2021/05/28 00:52:21;;;;;;;13.15;9.73;;;;;;;17.13;81.25;99425.94;1750577;79;26866;-52
2021/05/28 00:54:47;;;;;;;13.43;11.43;;;;;;;17.09;81.21;99421.75;1722912;80;21178;-54
2021/05/28 00:57:14;;;;;;;11.85;10.30;;;;;;;17.08;81.16;99427.68;1722587;80;21154;-52
2021/05/28 00:59:43;;;;;;;9.10;8.28;;;;;;;17.07;81.16;99426.44;1728460;80;21004;-52
2021/05/28 01:02:09;;;;;;;10.43;9.28;;;;;;;17.05;81.19;99422.97;1721236;80;21032;-52
2021/05/28 01:04:37;;;;;;;12.45;10.78;;;;;;;17.02;81.27;99429.50;1725326;80;21039;-51
2021/05/28 01:07:05;;;;;;;13.88;11.08;;;;;;;17.00;81.33;99435.09;1722541;80;21075;-54
2021/05/28 01:09:31;;;;;;;11.97;10.95;;;;;;;16.98;81.34;99428.91;1725211;80;21679;-52
2021/05/28 01:11:57;;;;;;;13.58;12.33;;;;;;;16.97;81.33;99430.37;1725277;80;21067;-52
2021/05/28 01:14:24;;;;;;;15.70;14.15;;;;;;;16.95;81.39;99431.86;1727492;80;21160;-51
2021/05/28 01:16:50;;;;;;;16.65;15.25;;;;;;;16.95;81.49;99432.34;1729296;80;21127;-55
2021/05/28 01:19:17;;;;;;;12.80;11.88;;;;;;;16.93;81.52;99427.52;1727016;80;21115;-54
2021/05/28 01:21:43;;;;;;;12.98;11.88;;;;;;;16.91;81.56;99426.30;1725847;80;21726;-52
2021/05/28 01:24:10;;;;;;;11.70;10.90;;;;;;;16.92;81.58;99422.60;1727438;80;21569;-52
2021/05/28 01:26:36;;;;;;;11.90;10.95;;;;;;;16.92;81.59;99429.89;1726369;80;21151;-52
2021/05/28 01:29:03;;;;;;;10.50;9.73;;;;;;;16.91;81.62;99428.16;1725363;80;21447;-53
2021/05/28 01:31:30;;;;;;;11.00;10.15;;;;;;;16.91;81.64;99424.08;1725651;80;21118;-54
2021/05/28 01:33:56;;;;;;;12.45;11.55;;;;;;;16.92;81.61;99417.66;1723318;80;22060;-52
2021/05/28 01:36:23;;;;;;;16.37;13.32;;;;;;;16.92;81.56;99408.14;1726878;80;21585;-54
2021/05/28 01:38:49;;;;;;;15.13;13.68;;;;;;;16.93;81.55;99411.20;1730177;80;21549;-52
2021/05/28 01:41:16;;;;;;;13.88;12.25;;;;;;;16.91;81.54;99417.28;1724355;80;21155;-52
2021/05/28 01:43:42;;;;;;;11.78;10.85;;;;;;;16.89;81.60;99415.17;1709985;82;21095;-53
2021/05/28 01:46:08;;;;;;;12.75;11.73;;;;;;;16.88;81.65;99426.54;1710431;82;21217;-52
2021/05/28 01:48:35;;;;;;;12.10;10.90;;;;;;;16.88;81.70;99422.95;1678956;83;21126;-54
2021/05/28 01:51:01;;;;;;;13.68;12.33;;;;;;;16.85;81.70;99422.69;1667356;83;21142;-54
2021/05/28 01:53:28;;;;;;;11.73;10.72;;;;;;;16.85;81.76;99424.55;1660061;84;21161;-54
2021/05/28 01:55:54;;;;;;;12.10;10.88;;;;;;;16.84;81.78;99421.48;1658276;84;21613;-55
2021/05/28 01:58:22;;;;;;;10.95;10.05;;;;;;;16.85;81.79;99424.55;1704917;82;21579;-54
2021/05/28 02:00:51;;;;;;;11.48;10.58;;;;;;;16.86;81.71;99421.70;1706813;82;21114;-54
2021/05/28 02:03:19;;;;;;;14.13;12.37;;;;;;;16.88;81.65;99420.23;1704681;82;21024;-55
2021/05/28 02:05:47;;;;;;;12.10;11.05;;;;;;;16.86;81.58;99424.92;1708407;82;21111;-54
2021/05/28 02:08:14;;;;;;;10.45;9.48;;;;;;;16.84;81.54;99427.75;1706125;82;21167;-53
2021/05/28 02:10:41;;;;;;;8.00;7.47;;;;;;;16.84;81.42;99423.67;1705782;82;21080;-55
2021/05/28 02:13:08;;;;;;;13.50;8.78;;;;;;;16.84;81.27;99422.84;1703730;82;21115;-55
2021/05/28 02:15:34;;;;;;;8.48;7.87;;;;;;;16.82;81.15;99425.67;1701973;82;21105;-54
2021/05/28 02:18:00;;;;;;;8.95;8.23;;;;;;;16.80;81.10;99426.28;1706041;82;20990;-54
2021/05/28 02:20:28;;;;;;;7.45;6.87;;;;;;;16.80;81.05;99422.69;1699949;82;21103;-54
2021/05/28 02:22:54;;;;;;;8.23;7.58;;;;;;;16.80;81.02;99426.77;1703386;82;21691;-54
2021/05/28 02:25:21;;;;;;;7.55;6.92;;;;;;;16.78;80.88;99422.81;1705424;82;21137;-55
2021/05/28 02:27:47;;;;;;;9.80;9.13;;;;;;;16.76;80.85;99416.63;1703489;82;21115;-56
2021/05/28 02:30:15;;;;;;;11.20;10.23;;;;;;;16.73;81.01;99410.58;1703826;82;21136;-55
2021/05/28 02:32:41;;;;;;;8.75;8.00;;;;;;;16.72;81.12;99413.79;1707467;82;20981;-55
2021/05/28 02:35:10;;;;;;;8.50;7.80;;;;;;;16.71;81.16;99416.13;1702124;82;21062;-54
2021/05/28 02:37:37;;;;;;;9.65;8.65;;;;;;;16.71;81.22;99412.05;1706865;82;21492;-55
2021/05/28 02:40:05;;;;;;;10.18;9.35;;;;;;;16.72;81.31;99412.92;1706210;82;21685;-55
2021/05/28 02:42:32;;;;;;;12.10;11.00;;;;;;;16.72;81.39;99411.07;1706387;82;21448;-55
2021/05/28 02:44:58;;;;;;;9.20;8.50;;;;;;;16.74;81.46;99408.23;1705034;82;21031;-55
2021/05/28 02:47:25;;;;;;;9.93;8.98;;;;;;;16.74;81.51;99394.65;1705113;82;21111;-54
2021/05/28 02:49:52;;;;;;;12.05;10.63;;;;;;;16.77;81.48;99402.05;1703834;82;21083;-55
2021/05/28 02:52:18;;;;;;;10.68;9.58;;;;;;;16.78;81.50;99394.77;1708000;82;21145;-55
2021/05/28 02:54:45;;;;;;;13.38;10.88;;;;;;;16.79;81.44;99397.85;1712505;82;21545;-54
2021/05/28 02:57:12;;;;;;;11.63;10.58;;;;;;;16.77;81.48;99395.25;1710942;82;21727;-55
2021/05/28 02:59:38;;;;;;;9.25;8.35;;;;;;;16.76;81.53;99394.88;1710254;82;21583;-55
2021/05/28 03:02:05;;;;;;;8.53;7.72;;;;;;;16.76;81.63;99398.12;1713829;82;20972;-55
2021/05/28 03:04:32;;;;;;;7.05;6.42;;;;;;;16.76;81.72;99398.12;1713680;82;20999;-55
2021/05/28 03:06:58;;;;;;;8.15;7.45;;;;;;;16.77;81.73;99396.61;1714016;82;21003;-55
2021/05/28 03:09:24;;;;;;;10.23;7.45;;;;;;;16.76;81.73;99390.80;1713637;82;21423;-54
2021/05/28 03:11:52;;;;;;;13.13;9.75;;;;;;;16.77;81.79;99387.59;1717176;82;21427;-55
2021/05/28 03:14:19;;;;;;;11.08;10.03;;;;;;;16.78;81.89;99394.77;1712804;82;21382;-55
2021/05/28 03:16:46;;;;;;;13.35;11.97;;;;;;;16.79;81.99;99386.98;1717020;82;20964;-55
2021/05/28 03:19:26;;;;;;;11.05;10.00;;;;;;;16.80;82.02;99388.72;1711508;82;20932;-55
2021/05/28 03:24:36;;;;;;;13.08;11.88;;;;;;;16.82;82.11;99393.55;1712710;82;21077;-54
2021/05/28 03:27:03;;;;;;;17.37;15.58;;;;;;;16.82;82.13;99388.11;1712861;82;20921;-56
2021/05/28 03:29:30;;;;;;;14.73;12.33;;;;;;;16.83;82.27;99391.20;1712329;82;20920;-55
2021/05/28 03:31:58;;;;;;;13.80;11.83;;;;;;;16.84;82.30;99388.86;1714843;82;20984;-55
2021/05/28 03:34:25;;;;;;;14.65;12.28;;;;;;;16.85;82.40;99388.71;1712312;82;20974;-58
2021/05/28 03:36:51;;;;;;;17.62;12.47;;;;;;;16.86;82.48;99389.09;1713911;82;21379;-55
2021/05/28 03:39:18;;;;;;;15.32;13.20;;;;;;;16.90;82.49;99391.08;1713566;82;20968;-55
2021/05/28 03:41:44;;;;;;;17.48;13.25;;;;;;;16.91;82.58;99394.17;1713175;82;21055;-55
2021/05/28 03:44:10;;;;;;;15.80;11.70;;;;;;;16.92;82.71;99394.06;1712036;82;21127;-55
2021/05/28 03:46:38;;;;;;;13.10;11.43;;;;;;;16.93;82.83;99401.20;1712983;82;21096;-56
2021/05/28 03:49:05;;;;;;;12.03;9.20;;;;;;;16.95;82.90;99399.23;1711305;82;22041;-56
2021/05/28 03:51:31;;;;;;;12.82;10.18;;;;;;;16.97;82.98;99394.55;1711011;82;21135;-56
2021/05/28 03:53:58;;;;;;;12.43;10.72;;;;;;;17.01;83.00;99403.33;1702417;82;21718;-56
2021/05/28 03:56:24;;;;;;;12.70;7.85;;;;;;;17.02;83.04;99407.75;1705462;82;21605;-54
2021/05/28 03:58:51;;;;;;;9.05;8.20;;;;;;;17.03;83.09;99407.64;1704630;82;20955;-55
2021/05/28 04:01:17;;;;;;;10.40;9.35;;;;;;;17.05;83.08;99410.23;1700936;82;21385;-55
2021/05/28 04:03:44;;;;;;;9.68;8.25;;;;;;;17.07;83.03;99411.48;1706413;82;21688;-55
2021/05/28 04:06:10;;;;;;;11.28;8.78;;;;;;;17.08;83.01;99411.86;1649691;82;21574;-56
2021/05/28 04:08:36;;;;;;;10.55;9.35;;;;;;;17.09;83.01;99411.73;1700110;82;21592;-55
2021/05/28 04:11:03;;;;;;;11.43;9.35;;;;;;;17.09;82.92;99418.54;1703392;82;22076;-54
2021/05/28 04:13:32;;;;;;;12.40;10.05;;;;;;;17.07;82.97;99419.64;1700341;82;21146;-54
2021/05/28 04:15:59;;;;;;;9.78;8.30;;;;;;;17.07;83.05;99419.64;1642983;85;21181;-56
2021/05/28 04:18:25;;;;;;;9.15;7.75;;;;;;;17.06;83.09;99407.89;1701376;82;20897;-54
2021/05/28 04:20:52;;;;;;;5.97;5.55;;;;;;;17.09;83.11;99415.81;1703577;82;21470;-54
2021/05/28 04:23:21;;;;;;;5.97;5.47;;;;;;;17.11;83.08;99412.95;1701364;82;22114;-55
2021/05/28 04:25:48;;;;;;;8.33;7.53;;;;;;;17.11;83.10;99411.09;1701197;82;21707;-55
2021/05/28 04:28:15;;;;;;;6.78;6.15;;;;;;;17.14;83.08;99413.58;1701655;82;21088;-55
2021/05/28 04:30:41;;;;;;;6.78;6.05;;;;;;;17.17;83.07;99411.98;1708616;82;21123;-57
2021/05/28 04:33:07;;;;;;;5.15;4.72;;;;;;;17.19;83.05;99414.06;1712257;82;21139;-56
2021/05/28 04:35:34;;;;;;;5.10;4.65;;;;;;;17.25;83.08;99415.44;1704493;82;21083;-57
2021/05/28 04:38:00;;;;;;;5.28;4.87;;;;;;;17.29;82.95;99414.19;1716175;82;21038;-56
2021/05/28 04:40:28;;;;;;;5.75;4.67;;;;;;;17.32;82.91;99412.59;1703399;82;21161;-57
2021/05/28 04:42:55;;;;;;;3.33;3.12;;;;;;;17.36;82.91;99413.56;1704613;82;21129;-56
2021/05/28 04:45:21;;;;;;;2.72;2.55;;;;;;;17.42;82.90;99409.98;1704997;82;20968;-56
2021/05/28 04:47:48;;;;;;;2.87;2.67;;;;;;;17.45;82.88;99413.30;1705587;82;21156;-55
2021/05/28 04:50:15;;;;;;;2.98;2.77;;;;;;;17.49;82.85;99411.22;1703960;82;21502;-56
2021/05/28 04:52:45;;;;;;;3.17;2.98;;;;;;;17.54;82.74;99418.49;1707578;82;21510;-55
2021/05/28 04:55:13;;;;;;;4.05;3.85;;;;;;;17.56;82.71;99410.58;1710638;82;20980;-56
2021/05/28 04:57:40;;;;;;;3.22;3.02;;;;;;;17.60;82.59;99412.56;1709789;82;21194;-54
2021/05/28 05:00:08;;;;;;;3.72;3.50;;;;;;;17.63;82.37;99399.59;1708716;82;21055;-55
2021/05/28 05:02:35;;;;;;;3.77;3.52;;;;;;;17.65;82.16;99400.33;1715554;82;21093;-56
2021/05/28 05:05:01;;;;;;;4.60;4.30;;;;;;;17.68;81.94;99397.86;1713396;82;20988;-56
2021/05/28 05:07:28;;;;;;;3.95;3.55;;;;;;;17.68;81.84;99404.17;1710993;82;20919;-55
2021/05/28 05:09:55;;;;;;;4.53;4.12;;;;;;;17.70;81.74;99405.38;1714213;82;20968;-55
2021/05/28 05:12:22;;;;;;;4.40;4.08;;;;;;;17.72;81.67;99407.48;1711867;82;21581;-55
2021/05/28 05:14:48;;;;;;;4.85;4.45;;;;;;;17.74;81.59;99410.45;1706359;82;21483;-57
2021/05/28 05:17:16;;;;;;;4.47;4.10;;;;;;;17.76;81.47;99408.48;1709189;82;21118;-57
2021/05/28 05:19:43;;;;;;;6.40;4.83;;;;;;;17.78;81.43;99408.33;1709353;82;21542;-55
2021/05/28 05:22:09;;;;;;;4.47;4.20;;;;;;;17.79;81.39;99407.34;1707218;82;21538;-57
2021/05/28 05:24:36;;;;;;;4.33;4.12;;;;;;;17.79;81.35;99401.89;1708680;82;22775;-55
2021/05/28 05:27:03;;;;;;;4.22;3.92;;;;;;;17.80;81.25;99413.65;1712985;82;21569;-57
2021/05/28 05:29:30;;;;;;;4.12;3.83;;;;;;;17.79;81.18;99414.14;1712628;82;21092;-57
2021/05/28 05:31:56;;;;;;;3.17;2.85;;;;;;;17.83;81.33;99418.36;1713016;82;21124;-55
2021/05/28 05:34:22;;;;;;;3.02;2.83;;;;;;;17.86;81.32;99415.39;1709015;82;21129;-56
2021/05/28 05:36:49;;;;;;;3.87;3.58;;;;;;;17.88;81.25;99416.10;1709280;82;21464;-57
2021/05/28 05:39:16;;;;;;;3.62;3.42;;;;;;;17.92;81.06;99407.20;1709289;82;22201;-56
2021/05/28 05:41:42;;;;;;;3.47;3.27;;;;;;;17.92;80.62;99414.87;1711455;80;21104;-56
2021/05/28 05:44:08;;;;;;;4.20;4.00;;;;;;;17.89;80.34;99412.39;1712121;82;20952;-57
2021/05/28 05:46:35;;;;;;;4.22;3.95;;;;;;;17.85;79.86;99411.42;1714082;82;20984;-56
2021/05/28 05:49:01;;;;;;;4.72;4.15;;;;;;;17.81;79.50;99409.45;1712762;82;21434;-57
2021/05/28 05:51:27;;;;;;;4.53;4.22;;;;;;;17.80;79.56;99409.56;1714055;82;21039;-55
2021/05/28 05:53:54;;;;;;;4.67;4.42;;;;;;;17.83;79.54;99406.11;1702123;82;21001;-56
2021/05/28 05:56:20;;;;;;;4.95;4.65;;;;;;;17.88;79.49;99402.98;1699748;82;20933;-55
2021/05/28 05:58:47;;;;;;;5.70;5.37;;;;;;;17.91;79.36;99402.24;1698098;82;21513;-56
2021/05/28 06:01:13;;;;;;;6.65;6.15;;;;;;;17.93;79.29;99402.12;1703646;82;20941;-57
2021/05/28 06:03:39;;;;;;;8.50;7.90;;;;;;;17.99;79.49;99403.83;1704517;82;21508;-55
2021/05/28 06:06:06;;;;;;;6.10;5.72;;;;;;;18.04;79.73;99404.29;1697321;82;21526;-57
2021/05/28 06:08:32;;;;;;;5.55;5.33;;;;;;;18.06;79.33;99407.75;1704262;82;21459;-55
2021/05/28 06:11:00;;;;;;;6.30;5.78;;;;;;;18.09;79.23;99411.59;1702894;82;21346;-57
2021/05/28 06:13:26;;;;;;;5.30;4.87;;;;;;;18.11;79.13;99411.47;1702042;82;20992;-57
2021/05/28 06:15:53;;;;;;;1.17;0.90;;;;;;;18.15;79.08;99416.52;1700460;82;20947;-57
2021/05/28 06:18:19;;;;;;;1.40;0.50;;;;;;;18.14;76.68;99415.27;1700472;82;21546;-56
2021/05/28 06:20:46;;;;;;;1.62;1.30;;;;;;;18.12;75.91;99414.53;1705066;82;20969;-56
2021/05/28 06:23:12;;;;;;;2.08;1.98;;;;;;;18.15;75.77;99410.20;1699649;82;21563;-56
2021/05/28 06:25:44;;;;;;;2.15;1.82;;;;;;;18.21;75.84;99412.89;1699017;82;20993;-58
2021/05/28 06:28:11;;;;;;;2.60;2.40;;;;;;;18.24;75.45;99405.33;1691173;82;21080;-58
2021/05/28 06:30:38;;;;;;;3.72;3.33;;;;;;;18.32;75.18;99404.67;1691421;83;21099;-58
2021/05/28 06:33:08;;;;;;;2.50;2.30;;;;;;;18.38;74.94;99399.55;1688233;83;21076;-54
2021/05/28 06:35:37;;;;;;;4.05;3.75;;;;;;;18.42;75.12;99393.36;1690397;83;21239;-58
2021/05/28 06:38:03;;;;;;;3.45;2.75;;;;;;;18.49;75.24;99394.05;1703169;82;20941;-57
2021/05/28 06:40:29;;;;;;;2.25;1.10;;;;;;;18.57;74.95;99398.01;1695852;82;22227;-56
2021/05/28 06:42:56;;;;;;;4.35;4.15;;;;;;;18.63;73.41;99396.14;1699601;82;21115;-55
2021/05/28 06:45:22;;;;;;;3.12;2.92;;;;;;;18.68;73.43;99390.64;1694379;82;21779;-58
2021/05/28 06:47:49;;;;;;;2.02;1.70;;;;;;;18.71;73.59;99390.38;1689556;82;21092;-56
2021/05/28 06:50:17;;;;;;;2.52;2.33;;;;;;;18.76;73.07;99392.69;1690068;83;21111;-56
2021/05/28 06:52:44;;;;;;;2.50;2.33;;;;;;;18.82;72.92;99391.64;1688558;83;21132;-55
2021/05/28 06:55:10;;;;;;;2.40;2.20;;;;;;;18.90;72.77;99397.28;1692343;82;21099;-57
2021/05/28 06:57:37;;;;;;;4.47;4.28;;;;;;;18.97;71.95;99390.78;1695561;82;21669;-56
2021/05/28 07:00:07;;;;;;;4.78;4.42;;;;;;;19.04;72.56;99392.49;1694817;82;21334;-53
2021/05/28 07:02:34;;;;;;;7.65;7.10;;;;;;;19.11;72.90;99392.30;1697099;82;21610;-54
2021/05/28 07:05:00;;;;;;;9.83;8.83;;;;;;;19.19;72.45;99396.58;1702957;82;21856;-54
2021/05/28 07:07:26;;;;;;;4.28;3.98;;;;;;;19.25;72.17;99393.29;1704364;82;21075;-55
2021/05/28 07:09:53;;;;;;;3.02;2.75;;;;;;;19.32;71.94;99393.59;1702347;82;21107;-54
2021/05/28 07:12:19;;;;;;;3.92;3.65;;;;;;;19.40;71.72;99395.13;1704758;82;21131;-52
2021/05/28 07:14:47;;;;;;;2.90;2.08;;;;;;;19.47;71.54;99384.05;1707137;82;21308;-54
2021/05/28 07:17:14;;;;;;;2.65;2.45;;;;;;;19.52;71.42;99389.98;1699816;82;21636;-53
2021/05/28 07:19:40;;;;;;;2.62;2.27;;;;;;;19.60;71.25;99389.64;1703587;82;21397;-54
2021/05/28 07:22:07;;;;;;;3.12;2.83;;;;;;;19.69;70.66;99386.58;1704166;82;21117;-52
2021/05/28 07:24:34;;;;;;;1.85;1.65;;;;;;;19.72;69.96;99390.91;1701752;82;21559;-52
2021/05/28 07:27:00;;;;;;;1.30;1.20;;;;;;;19.76;69.45;99382.77;1704393;82;21099;-52
2021/05/28 07:29:27;;;;;;;1.20;1.10;;;;;;;19.81;68.81;99384.09;1702542;82;21183;-51
2021/05/28 07:31:53;;;;;;;1.60;1.50;;;;;;;19.85;68.73;99377.33;1702542;82;21099;-51
2021/05/28 07:34:21;;;;;;;1.98;0.90;;;;;;;19.89;68.40;99379.29;1704489;82;21127;-53
2021/05/28 07:36:48;;;;;;;1.32;1.20;;;;;;;19.87;68.32;99374.46;1704026;82;21146;-52
2021/05/28 07:39:15;;;;;;;1.70;1.60;;;;;;;19.90;68.02;99378.29;1703225;82;21031;-54
2021/05/28 07:41:42;;;;;;;2.10;1.98;;;;;;;19.93;68.12;99370.66;1701061;82;21125;-51
2021/05/28 07:44:08;;;;;;;2.10;2.00;;;;;;;19.98;68.11;99369.74;1703657;82;21119;-54
2021/05/28 07:46:40;;;;;;;1.92;1.20;;;;;;;20.02;68.35;99369.80;1703006;82;21159;-54
2021/05/28 07:49:03;;;;;;;2.67;1.37;;;;;;;20.06;68.73;99370.39;1704578;82;21472;-51
2021/05/28 07:51:31;;;;;;;2.00;1.67;;;;;;;20.10;69.05;99374.55;1701737;82;21111;-54
2021/05/28 07:53:57;;;;;;;3.17;2.42;;;;;;;20.14;68.75;99373.27;1702756;82;21095;-54
2021/05/28 07:56:24;;;;;;;2.98;2.65;;;;;;;20.14;68.69;99368.30;1697991;82;21196;-51
2021/05/28 07:58:50;;;;;;;2.20;2.08;;;;;;;20.19;68.83;99368.72;1696802;82;21127;-51
2021/05/28 08:01:17;;;;;;;2.35;2.25;;;;;;;20.24;68.26;99369.17;1695323;82;21367;-52
2021/05/28 08:03:43;;;;;;;4.50;2.08;;;;;;;20.25;67.65;99370.37;1697539;82;21108;-53
2021/05/28 08:06:10;;;;;;;6.00;2.22;;;;;;;20.25;67.86;99369.00;1698769;82;22304;-51
2021/05/28 08:08:36;;;;;;;5.15;3.90;;;;;;;20.28;68.50;99359.16;1695507;82;21950;-51
2021/05/28 08:11:03;;;;;;;4.85;4.42;;;;;;;20.25;67.70;99351.23;1695530;82;21692;-52
2021/05/28 08:13:30;;;;;;;2.52;2.12;;;;;;;20.22;68.06;99352.91;1698639;82;21809;-53
2021/05/28 08:15:59;;;;;;;3.80;3.50;;;;;;;20.26;68.27;99348.87;1697309;82;21163;-52
2021/05/28 08:18:27;;;;;;;5.62;3.22;;;;;;;20.34;68.44;99353.14;1698955;82;21590;-53
2021/05/28 08:20:54;;;;;;;3.00;2.42;;;;;;;20.43;67.99;99358.23;1696047;82;21390;-54
2021/05/28 08:23:20;;;;;;;5.30;2.25;;;;;;;20.50;68.00;99351.17;1696238;82;20953;-54
2021/05/28 08:25:49;;;;;;;3.30;3.05;;;;;;;20.57;67.64;99350.97;1696510;82;21478;-52
2021/05/28 08:28:18;;;;;;;4.15;3.60;;;;;;;20.63;67.20;99350.88;1697958;82;21186;-53
2021/05/28 08:30:46;;;;;;;4.33;4.00;;;;;;;20.67;67.26;99349.58;1698491;82;21513;-53
2021/05/28 08:33:13;;;;;;;4.95;4.33;;;;;;;20.73;66.44;99350.35;1696072;82;21420;-54
2021/05/28 08:35:40;;;;;;;7.80;5.12;;;;;;;20.73;65.98;99343.02;1698557;82;21158;-53
2021/05/28 08:38:07;;;;;;;4.15;3.65;;;;;;;20.69;66.41;99345.67;1695591;82;21114;-54
2021/05/28 08:40:34;;;;;;;3.25;2.83;;;;;;;20.71;66.37;99338.69;1687662;83;21182;-52
2021/05/28 08:43:02;;;;;;;5.10;2.37;;;;;;;20.74;66.06;99343.38;1695980;82;21107;-52
2021/05/28 08:45:43;;;;;;;3.05;2.85;;;;;;;20.76;65.36;99338.59;1701331;82;20945;-54
2021/05/28 08:48:12;;;;;;;3.67;3.27;;;;;;;20.81;65.49;99338.66;1697557;82;21104;-54
2021/05/28 08:50:38;;;;;;;4.28;3.95;;;;;;;20.91;65.83;99335.40;1698354;82;20980;-54
2021/05/28 08:53:06;;;;;;;4.28;3.98;;;;;;;21.01;66.22;99330.76;1704563;82;20922;-52
2021/05/28 08:55:33;;;;;;;5.00;4.45;;;;;;;21.10;66.13;99327.95;1697115;82;21049;-52
2021/05/28 08:58:03;;;;;;;4.40;3.65;;;;;;;21.15;65.30;99328.89;1697555;82;20977;-52
2021/05/28 09:00:29;;;;;;;4.40;4.03;;;;;;;21.21;64.86;99331.55;1677767;82;20960;-55
2021/05/28 09:02:55;;;;;;;4.65;4.20;;;;;;;21.24;64.79;99328.02;1698299;82;20993;-54
2021/05/28 09:05:23;;;;;;;3.98;3.52;;;;;;;21.27;64.44;99330.93;1699914;82;20913;-54
2021/05/28 09:07:57;;;;;;;2.87;2.67;;;;;;;21.25;64.21;99326.14;1697080;82;21038;-51
2021/05/28 09:10:38;;;;;;;3.45;2.50;;;;;;;21.28;64.37;99317.60;1696521;82;20933;-54
2021/05/28 09:13:21;;;;;;;2.02;1.92;;;;;;;21.30;64.10;99317.81;1696819;82;20989;-52
2021/05/28 09:15:49;;;;;;;3.55;3.15;;;;;;;21.33;63.42;99320.27;1699080;82;20969;-54
2021/05/28 09:18:15;;;;;;;3.87;3.35;;;;;;;21.41;62.52;99319.49;1698655;82;20977;-55
2021/05/28 09:20:47;;;;;;;4.58;3.27;;;;;;;21.47;62.46;99315.63;1701898;82;21596;-55
2021/05/28 09:23:17;;;;;;;3.25;2.83;;;;;;;21.59;62.85;99313.55;1704097;82;20979;-52
2021/05/28 09:26:03;;;;;;;3.50;3.40;;;;;;;21.68;61.16;99310.39;1699850;82;21468;-53
2021/05/28 09:28:36;;;;;;;3.65;3.35;;;;;;;21.65;60.91;99314.28;1700503;82;20946;-51
2021/05/28 09:31:07;;;;;;;5.83;2.98;;;;;;;21.65;59.75;99310.69;1678085;82;21299;-52
2021/05/28 09:33:38;;;;;;;7.75;2.42;;;;;;;21.68;60.22;99306.28;1699545;82;21147;-52
2021/05/28 09:36:27;;;;;;;2.85;2.62;;;;;;;21.72;60.35;99306.30;1694529;82;21075;-53
2021/05/28 09:39:09;;;;;;;3.40;3.20;;;;;;;21.71;60.85;99301.33;1695465;82;21111;-50
2021/05/28 09:41:43;;;;;;;4.22;2.92;;;;;;;21.69;61.19;99303.36;1694853;82;21114;-51
2021/05/28 09:44:24;;;;;;;4.95;3.15;;;;;;;21.67;61.44;99301.81;1689845;82;21075;-51
2021/05/28 09:47:01;;;;;;;2.40;2.15;;;;;;;21.66;61.72;99300.09;1697387;82;21446;-52
2021/05/28 09:49:31;;;;;;;1.90;1.70;;;;;;;21.67;61.55;99298.56;1697585;82;21139;-51
2021/05/28 09:52:32;;;;;;;1.55;1.45;;;;;;;21.69;61.64;99297.05;1695301;82;21102;-53
2021/05/28 09:55:07;;;;;;;2.33;2.17;;;;;;;21.71;61.59;99292.25;1695540;82;21100;-50
2021/05/28 09:57:48;;;;;;;2.67;2.40;;;;;;;21.72;61.15;99298.95;1711647;82;21008;-54
2021/05/28 10:00:33;;;;;;;4.08;2.37;;;;;;;21.73;61.20;99291.59;1710939;82;22336;-51
2021/05/28 10:03:24;;;;;;;2.92;2.10;;;;;;;21.74;61.17;99283.23;1709291;82;21146;-51
2021/05/28 10:05:57;;;;;;;5.67;3.08;;;;;;;21.73;61.39;99278.77;1706823;82;21099;-53
2021/05/28 10:08:25;;;;;;;2.85;2.65;;;;;;;21.76;60.53;99283.94;1712399;82;21127;-50
2021/05/28 10:10:54;;;;;;;2.02;1.92;;;;;;;21.81;60.68;99276.61;1712308;82;21393;-51
2021/05/28 10:13:23;;;;;;;2.85;2.70;;;;;;;21.92;61.24;99272.78;1709794;82;21146;-51
2021/05/28 10:15:51;;;;;;;3.37;2.58;;;;;;;21.99;61.10;99276.13;1712582;82;21044;-54
2021/05/28 10:18:18;;;;;;;3.58;3.37;;;;;;;22.01;60.66;99271.36;1709483;82;21087;-51
2021/05/28 10:20:48;;;;;;;3.75;2.80;;;;;;;22.03;59.85;99268.47;1711786;82;21111;-51
2021/05/28 10:23:17;;;;;;;4.70;4.20;;;;;;;22.05;59.53;99269.14;1711279;82;21078;-50
2021/05/28 10:25:45;;;;;;;3.05;2.85;;;;;;;22.07;59.65;99262.50;1709157;82;21122;-53
2021/05/28 10:28:20;;;;;;;3.60;3.30;;;;;;;22.11;58.99;99261.69;1707629;82;21115;-50
2021/05/28 10:30:48;;;;;;;4.22;3.92;;;;;;;22.09;59.09;99260.47;1713255;82;21071;-53
2021/05/28 10:33:28;;;;;;;4.25;3.72;;;;;;;22.14;59.49;99258.60;1708143;82;21572;-50
2021/05/28 10:36:05;;;;;;;4.50;4.10;;;;;;;22.26;59.31;99253.23;1708309;82;21513;-51
2021/05/28 10:38:49;;;;;;;4.40;4.20;;;;;;;22.35;58.24;99248.16;1712059;82;22532;-56
2021/05/28 10:41:25;;;;;;;5.75;4.15;;;;;;;22.43;58.98;99243.23;1713715;82;21087;-55
2021/05/28 10:44:02;;;;;;;3.92;3.72;;;;;;;22.51;58.32;99241.91;1707347;82;21126;-53
2021/05/28 10:46:28;;;;;;;3.95;3.65;;;;;;;22.55;58.70;99238.67;1710909;82;20980;-50
2021/05/28 10:49:12;;;;;;;4.20;4.00;;;;;;;22.60;58.42;99240.94;1709969;82;21116;-50
2021/05/28 10:51:41;;;;;;;4.08;3.83;;;;;;;22.63;57.81;99236.48;1706972;82;21153;-51
2021/05/28 10:54:13;;;;;;;5.60;5.22;;;;;;;22.65;57.87;99234.44;1708923;82;21150;-51
2021/05/28 10:56:43;;;;;;;4.83;4.58;;;;;;;22.69;57.72;99227.62;1701273;82;21080;-51
2021/05/28 10:59:14;;;;;;;4.90;4.30;;;;;;;22.70;57.24;99221.63;1694706;82;21993;-52
2021/05/28 11:01:57;;;;;;;4.35;4.25;;;;;;;22.69;57.41;99220.77;1696800;82;21072;-51
2021/05/28 11:04:31;;;;;;;6.62;4.87;;;;;;;22.70;58.19;99224.37;1694745;82;21679;-52
2021/05/28 11:07:12;;;;;;;5.85;4.75;;;;;;;22.71;57.97;99217.35;1649798;82;20992;-52
2021/05/28 11:09:51;;;;;;;4.65;4.28;;;;;;;22.73;58.06;99211.16;1698996;82;20977;-51
2021/05/28 11:12:38;;;;;;;5.97;5.53;;;;;;;22.83;58.57;99215.19;1694459;82;21549;-53
2021/05/28 11:15:12;;;;;;;5.85;4.60;;;;;;;22.90;58.07;99204.76;1695516;82;21135;-54
2021/05/28 11:17:56;;;;;;;6.03;5.70;;;;;;;22.91;57.35;99197.39;1693446;82;21130;-51
2021/05/28 11:20:32;;;;;;;7.00;6.20;;;;;;;22.91;58.51;99205.63;1697797;82;21143;-51
2021/05/28 11:23:01;;;;;;;5.78;5.47;;;;;;;22.95;58.46;99198.79;1695338;82;21322;-53
2021/05/28 11:25:32;;;;;;;7.08;6.47;;;;;;;22.99;57.93;99196.05;1674675;82;21159;-53
2021/05/28 11:28:06;;;;;;;7.25;6.58;;;;;;;23.01;58.05;99191.25;1696314;82;21115;-53
2021/05/28 11:30:47;;;;;;;6.87;6.35;;;;;;;23.00;57.83;99186.28;1700983;82;21069;-54
2021/05/28 11:33:36;;;;;;;10.10;6.55;;;;;;;22.97;58.46;99185.73;1675667;83;21171;-51
2021/05/28 11:36:38;;;;;;;9.50;6.78;;;;;;;22.92;58.49;99175.78;1694751;82;21143;-52
2021/05/28 11:39:08;;;;;;;7.55;7.15;;;;;;;22.88;58.51;99171.67;1695430;82;21142;-54
2021/05/28 11:41:50;;;;;;;7.12;6.65;;;;;;;22.83;58.57;99172.66;1657401;84;21126;-53